Main page
METAR-TAF:

METAR-TAF

Airports :

Olsztyn, Poland

Olsztyn-Mazury Airport

latitude: 53-28-55N, longitude: 20-56-16E, elevation: 141 m

Current weather observation

The report was made 32 minutes ago, at 16:00 UTC
Wind 4 kt from the North
Temperature -7°C
Humidity 53%
Pressure 1024 hPa
Visibility 10 km or more
no clouds below 1500 m and no cumulonimbus

METAR: EPSY 231600Z 01004KT CAVOK M07/M15 Q1024

Time: 17:32 (16:32 UTC)

Forecast

The report was made 2 hours and 2 minutes ago, at 14:30 UTC
Forecast valid from 23 at 15 UTC to 23 at 24 UTC
Wind 3 kt from variable directions
Visibility 10 km or more
no clouds below 1500 m and no cumulonimbus
Becoming
from 23 at 21 UTC to 23 at 23 UTC
Visibility: 3000 m
Overcast at a height of 1000 ft
light snow, mist

TAF: EPSY 231430Z 2315/2324 VRB03KT CAVOK BECMG 2321/2323 3000 -SN BR OVC010

Weather observations and forecasts of more than 4000 airports (METAR and TAF reports).

The available stations are represented by yellow and red dots on the map.

Hover mouse over dot to see the name of the station.

Then click to see weather observations and forecasts.

To change the map : click on the green buttons with a black cross to zoom in, on the green button with a dash to zoom out, or on the green arrows for adjacent maps.


METAR-TAF: